Terminal Aerodrome Forecast
Issued by NWS

Home | Current Version | Previous Version | Text Only | Print | Product List | Glossary On
Versions: 1 2 3 4 5 6 7 8 9 10 11 12
000
FTUS46 KMTR 070540
TAFSTS
TAF
KSTS 070540Z 0706/0806 15006KT P6SM FEW250
     FM070700 VRB03KT P6SM SCT007
      TEMPO 0707/0710 1SM BR VV002
     FM071000 00000KT 1/2SM FG VV001
     FM071700 19007KT P6SM FEW250
     FM080300 VRB03KT P6SM FEW250=

USA.gov is the U.S. government's official web portal to all federal, state and local government web resources and services.